Time;durP1;ratioP1;P1;durP2;ratioP2;P2;SDS_P1;SDS_P2;PMS_P1;PMS_P2;Temp;Humidity;BMP_temperature;BMP_pressure;BME280_temperature;BME280_humidity;BME280_pressure;Samples;Min_cycle;Max_cycle;Signal;HPM_P1;HPM_P2
2023/03/17 00:02:50;;;;;;;9.85;3.78;;;-0.70;99.90;;;;;;8197470;28;20094;-80
2023/03/17 00:06:51;;;;;;;8.85;4.35;;;-0.60;99.90;;;;;;8197454;28;20083;-81
2023/03/17 00:10:53;;;;;;;6.60;3.85;;;-0.50;99.90;;;;;;8199509;28;20030;-81
2023/03/17 00:14:53;;;;;;;8.43;3.67;;;-0.50;99.90;;;;;;8199032;28;20122;-81
2023/03/17 00:18:56;;;;;;;7.90;4.00;;;-0.50;99.90;;;;;;8196769;28;20023;-80
2023/03/17 00:23:00;;;;;;;6.50;3.50;;;-0.40;99.90;;;;;;8201624;28;20090;-81
2023/03/17 00:27:01;;;;;;;6.15;3.90;;;-0.50;99.90;;;;;;8199259;28;20038;-82
2023/03/17 00:31:12;;;;;;;6.15;3.22;;;-0.40;99.90;;;;;;8203687;28;20505;-80
2023/03/17 00:35:19;;;;;;;8.65;3.30;;;-0.40;99.90;;;;;;8204737;28;20087;-82
2023/03/17 00:39:19;;;;;;;6.97;2.67;;;-0.40;99.90;;;;;;8202935;28;20114;-81
2023/03/17 00:43:20;;;;;;;5.72;2.97;;;-0.80;99.90;;;;;;8201035;28;20027;-81
2023/03/17 00:47:20;;;;;;;5.03;2.83;;;-0.80;99.90;;;;;;8201660;28;20122;-81
2023/03/17 00:51:22;;;;;;;6.57;3.30;;;-0.80;99.90;;;;;;8201077;28;20440;-81
2023/03/17 00:55:25;;;;;;;9.45;2.95;;;-0.90;99.90;;;;;;8200301;28;20051;-81
2023/03/17 00:59:29;;;;;;;5.65;3.03;;;-1.00;99.90;;;;;;8197503;28;20030;-81
2023/03/17 01:03:31;;;;;;;8.77;3.53;;;-1.00;99.90;;;;;;8202605;28;20019;-80
2023/03/17 01:07:32;;;;;;;11.27;4.45;;;-1.00;99.90;;;;;;8202819;28;20503;-81
2023/03/17 01:11:32;;;;;;;8.90;4.07;;;-1.00;99.90;;;;;;8205930;28;20031;-82
2023/03/17 01:15:33;;;;;;;6.13;3.75;;;-1.00;99.90;;;;;;8212740;28;20126;-79
2023/03/17 01:19:34;;;;;;;7.05;3.47;;;-1.10;99.90;;;;;;8212719;28;20058;-81
2023/03/17 01:23:34;;;;;;;4.40;2.80;;;-1.10;99.90;;;;;;8212383;28;20031;-81
2023/03/17 01:27:35;;;;;;;5.85;3.38;;;-1.10;99.90;;;;;;8211040;28;20074;-81
2023/03/17 01:31:36;;;;;;;8.70;3.33;;;-1.10;99.90;;;;;;8210830;28;20089;-81
2023/03/17 01:35:37;;;;;;;10.13;3.75;;;-1.10;99.90;;;;;;8201808;28;20023;-81
2023/03/17 01:39:38;;;;;;;6.85;2.95;;;-1.00;99.90;;;;;;8205426;28;20096;-82
2023/03/17 01:43:39;;;;;;;6.53;3.63;;;-0.60;99.90;;;;;;8201505;28;20470;-81
2023/03/17 01:47:39;;;;;;;8.88;3.50;;;-0.40;99.90;;;;;;8201632;28;20015;-81
2023/03/17 01:52:05;;;;;;;8.30;3.30;;;-0.40;99.90;;;;;;8210676;28;20018;-82
2023/03/17 01:56:06;;;;;;;6.63;3.60;;;-0.50;99.90;;;;;;8201302;28;20053;-82
2023/03/17 02:00:17;;;;;;;4.82;3.38;;;-0.60;99.90;;;;;;8186223;28;20400;-81
2023/03/17 02:04:19;;;;;;;5.20;2.90;;;-0.70;99.90;;;;;;8199428;28;20102;-81
2023/03/17 02:08:20;;;;;;;4.63;3.08;;;-0.80;99.90;;;;;;8201872;28;20114;-81
2023/03/17 02:12:23;;;;;;;5.00;2.83;;;-0.90;99.90;;;;;;8203805;28;20091;-81
2023/03/17 02:16:23;;;;;;;5.63;2.97;;;-0.90;99.90;;;;;;8203008;28;20058;-81
2023/03/17 02:20:24;;;;;;;7.38;3.20;;;-0.80;99.90;;;;;;8210945;28;20035;-81
2023/03/17 02:24:36;;;;;;;6.95;3.17;;;-0.70;99.90;;;;;;8209341;28;20046;-82
2023/03/17 02:28:38;;;;;;;6.00;3.40;;;-0.80;99.90;;;;;;8207865;28;20034;-82
2023/03/17 02:32:39;;;;;;;5.00;2.90;;;-0.70;99.90;;;;;;8209581;28;20492;-81
2023/03/17 02:36:40;;;;;;;5.15;2.47;;;-0.50;99.90;;;;;;8212846;28;20027;-81
2023/03/17 02:40:40;;;;;;;6.25;3.38;;;-0.50;99.90;;;;;;8207197;28;20384;-81
2023/03/17 02:44:41;;;;;;;5.00;2.80;;;-0.70;99.90;;;;;;8211525;28;20023;-81
2023/03/17 02:48:41;;;;;;;5.50;2.80;;;-0.50;99.90;;;;;;8208646;28;20107;-82
2023/03/17 02:52:42;;;;;;;6.22;3.35;;;-0.20;99.90;;;;;;8206382;28;20029;-81
2023/03/17 02:56:43;;;;;;;5.47;2.95;;;-0.30;99.90;;;;;;8202226;28;20420;-79
2023/03/17 03:00:44;;;;;;;5.25;2.95;;;-0.40;99.90;;;;;;8201108;28;20038;-83
2023/03/17 03:04:45;;;;;;;7.32;2.90;;;-0.60;99.90;;;;;;8208669;23;20044;-81
2023/03/17 03:08:46;;;;;;;5.93;2.85;;;-0.60;99.90;;;;;;8169064;29;20044;-81
2023/03/17 03:12:46;;;;;;;7.65;3.00;;;-0.70;99.90;;;;;;8166901;29;20390;-81
2023/03/17 03:16:47;;;;;;;4.95;2.53;;;-0.60;99.90;;;;;;8167160;29;20066;-80
2023/03/17 03:25:45;;;;;;;5.85;2.80;;;-0.80;99.90;;;;;;8160127;29;20039;-79
2023/03/17 03:29:45;;;;;;;5.95;2.58;;;-0.40;99.90;;;;;;8166992;29;20047;-80
2023/03/17 03:33:46;;;;;;;4.15;2.55;;;-0.20;99.90;;;;;;8168173;29;20019;-80
2023/03/17 03:37:47;;;;;;;6.30;3.30;;;-0.50;99.90;;;;;;8171041;29;20043;-80
2023/03/17 03:41:47;;;;;;;5.97;3.13;;;-0.60;99.90;;;;;;8164227;29;20028;-78
2023/03/17 03:45:48;;;;;;;10.45;3.28;;;-0.30;99.90;;;;;;8166479;29;20021;-79
2023/03/17 03:49:48;;;;;;;12.70;2.72;;;0.10;99.90;;;;;;8166819;29;20086;-79
2023/03/17 03:53:49;;;;;;;5.47;2.97;;;0.20;99.90;;;;;;8165660;29;20030;-79
2023/03/17 03:57:50;;;;;;;4.13;2.78;;;0.20;99.90;;;;;;8164034;29;20030;-79
2023/03/17 04:01:50;;;;;;;7.05;2.83;;;-0.40;99.90;;;;;;8168406;29;20023;-80
2023/03/17 04:05:51;;;;;;;6.47;2.53;;;-0.90;99.90;;;;;;8167328;29;20032;-79
2023/03/17 04:09:52;;;;;;;4.68;2.40;;;-1.00;99.90;;;;;;8165095;29;20026;-78
2023/03/17 04:13:52;;;;;;;4.43;2.63;;;-1.10;99.90;;;;;;8165720;29;20035;-79
2023/03/17 04:17:55;;;;;;;4.10;2.58;;;-1.10;99.90;;;;;;8165358;29;20658;-79
2023/03/17 04:21:56;;;;;;;3.72;2.13;;;-1.20;99.90;;;;;;8165557;29;20444;-77
2023/03/17 04:25:57;;;;;;;5.43;2.03;;;-1.10;99.90;;;;;;8165254;29;20067;-79
2023/03/17 04:29:57;;;;;;;3.72;2.17;;;-1.00;99.90;;;;;;8165890;29;20039;-80
2023/03/17 04:33:58;;;;;;;4.60;2.67;;;-1.00;99.90;;;;;;8165753;29;20062;-79
2023/03/17 04:37:59;;;;;;;9.00;3.40;;;-0.20;99.90;;;;;;8169893;29;20019;-80
2023/03/17 04:41:59;;;;;;;4.68;2.80;;;-0.80;99.90;;;;;;8172719;29;20079;-80
2023/03/17 04:46:00;;;;;;;6.22;3.10;;;-0.40;99.90;;;;;;8172656;29;20635;-80
2023/03/17 04:50:00;;;;;;;6.22;2.97;;;-0.40;99.90;;;;;;8172852;29;20120;-80
2023/03/17 04:54:02;;;;;;;4.85;3.05;;;-0.50;99.90;;;;;;8170405;29;20047;-80
2023/03/17 04:58:02;;;;;;;5.68;3.33;;;-0.70;99.90;;;;;;8170484;29;20650;-80
2023/03/17 05:02:03;;;;;;;5.90;2.83;;;-0.70;99.90;;;;;;8171178;29;20087;-80
2023/03/17 05:06:04;;;;;;;4.38;3.20;;;-0.50;99.90;;;;;;8172095;29;20119;-78
2023/03/17 05:10:05;;;;;;;5.32;2.58;;;-0.70;99.90;;;;;;8171132;29;20027;-79
2023/03/17 05:14:05;;;;;;;4.65;2.70;;;-0.80;99.90;;;;;;8171717;29;20115;-79
2023/03/17 05:18:07;;;;;;;5.22;2.63;;;-0.90;99.90;;;;;;8170391;29;20087;-79
2023/03/17 05:22:07;;;;;;;5.10;2.47;;;-0.90;99.90;;;;;;8171342;29;20504;-79
2023/03/17 05:26:09;;;;;;;4.78;2.72;;;-0.90;99.90;;;;;;8170688;29;20110;-80
2023/03/17 05:30:10;;;;;;;4.97;2.80;;;-1.00;99.90;;;;;;8170712;29;20020;-80
2023/03/17 05:34:10;;;;;;;6.25;3.15;;;-1.00;99.90;;;;;;8170999;29;20032;-80
2023/03/17 05:38:12;;;;;;;10.65;4.88;;;-1.00;99.90;;;;;;8179621;29;20505;-79
2023/03/17 05:42:13;;;;;;;8.43;4.10;;;-1.00;99.90;;;;;;8170588;29;20424;-80
2023/03/17 05:46:14;;;;;;;14.73;7.35;;;-0.50;99.90;;;;;;8169168;29;20119;-79
2023/03/17 05:50:14;;;;;;;9.90;5.28;;;-0.70;99.90;;;;;;8169891;29;20531;-80
2023/03/17 05:54:15;;;;;;;9.80;4.68;;;-0.70;99.90;;;;;;8173242;29;20028;-79
2023/03/17 05:58:16;;;;;;;9.77;4.45;;;-0.70;99.90;;;;;;8167518;29;20027;-80
2023/03/17 06:02:16;;;;;;;7.90;4.43;;;-0.70;99.90;;;;;;8167784;29;20395;-80
2023/03/17 06:06:17;;;;;;;7.75;3.72;;;-0.50;99.90;;;;;;8168187;29;20488;-80
2023/03/17 06:10:18;;;;;;;6.32;3.53;;;-0.40;99.90;;;;;;8168206;29;20020;-79
2023/03/17 06:14:18;;;;;;;6.30;3.78;;;-0.40;99.90;;;;;;8166879;29;20110;-79
2023/03/17 06:18:19;;;;;;;10.75;4.70;;;-0.40;99.90;;;;;;8170991;29;20032;-80
2023/03/17 06:22:20;;;;;;;9.80;4.43;;;-0.20;99.90;;;;;;8165248;29;20090;-80
2023/03/17 06:26:20;;;;;;;13.27;5.53;;;-0.10;99.90;;;;;;8167539;29;20023;-79
2023/03/17 06:30:21;;;;;;;11.63;4.95;;;0.50;99.90;;;;;;8166402;29;20024;-79
2023/03/17 06:34:23;;;;;;;9.00;4.22;;;0.80;99.90;;;;;;8165590;29;20027;-78
2023/03/17 06:38:23;;;;;;;15.48;6.10;;;0.70;99.90;;;;;;8165510;29;20020;-80
2023/03/17 06:42:24;;;;;;;14.88;6.65;;;0.70;99.90;;;;;;8165670;29;20027;-80
2023/03/17 06:46:24;;;;;;;13.63;5.55;;;0.60;99.90;;;;;;8166245;29;20035;-79
2023/03/17 06:50:25;;;;;;;10.40;4.68;;;0.90;99.90;;;;;;8165685;29;20016;-79
2023/03/17 06:54:27;;;;;;;10.55;4.90;;;1.10;99.90;;;;;;8165110;29;20023;-80
2023/03/17 06:58:29;;;;;;;10.57;4.57;;;1.00;99.90;;;;;;8164588;29;20110;-80
2023/03/17 07:02:29;;;;;;;7.63;4.05;;;1.30;99.90;;;;;;8129010;29;1059729;-79
2023/03/17 07:06:30;;;;;;;7.13;3.90;;;1.70;99.90;;;;;;8166536;29;20346;-80
2023/03/17 07:10:32;;;;;;;8.70;4.70;;;1.80;99.90;;;;;;8169871;29;20030;-79
2023/03/17 07:14:34;;;;;;;7.82;4.55;;;2.00;99.90;;;;;;8170188;29;20024;-79
2023/03/17 07:18:34;;;;;;;6.45;4.07;;;2.30;99.90;;;;;;8165041;29;20254;-79
2023/03/17 07:22:35;;;;;;;7.10;4.20;;;2.10;99.90;;;;;;8164936;29;20023;-79
2023/03/17 07:26:36;;;;;;;9.43;4.88;;;2.10;99.90;;;;;;8166000;29;20026;-79
2023/03/17 07:30:37;;;;;;;6.75;4.13;;;2.50;99.90;;;;;;8165799;29;20497;-79
2023/03/17 07:34:37;;;;;;;9.23;4.07;;;2.80;99.90;;;;;;8166147;29;20027;-79
2023/03/17 07:38:38;;;;;;;8.20;4.40;;;3.10;99.90;;;;;;8165048;29;20024;-79
2023/03/17 07:42:38;;;;;;;6.45;4.40;;;3.50;99.90;;;;;;8164540;29;20028;-79
2023/03/17 07:46:39;;;;;;;7.35;4.18;;;3.80;99.90;;;;;;8164491;29;20404;-80
2023/03/17 07:50:41;;;;;;;6.88;4.38;;;4.00;99.90;;;;;;8163884;29;20515;-79
2023/03/17 07:54:42;;;;;;;13.18;6.60;;;4.20;99.90;;;;;;8163481;29;20397;-79
2023/03/17 07:58:42;;;;;;;19.52;9.43;;;5.10;99.90;;;;;;8160200;29;20038;-80
2023/03/17 08:02:44;;;;;;;7.97;4.60;;;5.50;99.90;;;;;;8164277;29;20019;-80
2023/03/17 08:06:45;;;;;;;8.25;4.28;;;5.90;99.90;;;;;;8164967;29;20719;-80
2023/03/17 08:10:46;;;;;;;6.57;4.20;;;6.20;99.90;;;;;;8164981;29;20392;-80
2023/03/17 08:14:47;;;;;;;5.78;3.70;;;6.80;99.90;;;;;;8165413;29;20035;-80
2023/03/17 08:18:47;;;;;;;7.18;4.05;;;7.00;99.90;;;;;;8165408;29;20413;-80
2023/03/17 08:22:48;;;;;;;7.45;3.22;;;7.10;99.90;;;;;;8166036;29;20024;-79
2023/03/17 08:26:48;;;;;;;5.68;3.95;;;7.40;99.90;;;;;;8164518;29;20050;-80
2023/03/17 08:30:49;;;;;;;10.05;4.25;;;7.30;99.90;;;;;;8164991;29;20102;-80
2023/03/17 08:34:53;;;;;;;5.97;4.38;;;7.30;99.90;;;;;;8163822;29;20035;-80
2023/03/17 08:38:53;;;;;;;10.20;3.28;;;7.40;99.90;;;;;;8164717;29;20038;-79
2023/03/17 08:42:54;;;;;;;6.05;3.83;;;7.30;99.90;;;;;;8164014;29;20059;-79
2023/03/17 08:46:55;;;;;;;4.30;2.60;;;7.30;99.90;;;;;;8164748;29;20027;-80
2023/03/17 08:50:56;;;;;;;5.97;3.38;;;7.40;99.90;;;;;;8164922;29;20118;-80
2023/03/17 08:54:57;;;;;;;6.75;4.03;;;7.60;99.90;;;;;;8167478;29;20079;-80
2023/03/17 08:58:58;;;;;;;6.82;4.13;;;8.00;99.90;;;;;;8165311;29;20083;-80
2023/03/17 09:02:58;;;;;;;4.60;3.40;;;8.30;99.90;;;;;;8166413;29;20469;-80
2023/03/17 09:06:59;;;;;;;5.30;3.90;;;8.70;99.90;;;;;;8168075;29;20036;-80
2023/03/17 09:11:02;;;;;;;6.40;3.90;;;9.00;99.90;;;;;;8166963;29;20020;-80
2023/03/17 09:15:04;;;;;;;6.85;4.32;;;9.50;99.90;;;;;;8165802;29;20062;-79
2023/03/17 09:19:05;;;;;;;8.98;4.50;;;10.00;99.90;;;;;;8168214;29;20192;-80
2023/03/17 09:23:09;;;;;;;6.25;4.00;;;10.00;99.90;;;;;;8168577;29;20043;-80
2023/03/17 09:27:10;;;;;;;6.60;4.05;;;10.40;99.90;;;;;;8174570;29;20030;-80
2023/03/17 09:31:11;;;;;;;7.47;3.85;;;10.80;99.90;;;;;;8171226;29;20384;-80
2023/03/17 09:35:12;;;;;;;6.53;3.92;;;11.30;99.90;;;;;;8171122;29;20027;-80
2023/03/17 09:39:12;;;;;;;7.60;3.90;;;11.80;99.90;;;;;;8170705;29;20055;-80
2023/03/17 09:43:15;;;;;;;6.80;3.60;;;12.30;99.90;;;;;;8175821;29;20405;-80
2023/03/17 09:47:44;;;;;;;27.27;13.88;;;12.90;99.90;;;;;;8176557;29;20024;-81
2023/03/17 09:51:46;;;;;;;5.07;3.40;;;13.60;99.90;;;;;;8183833;28;20035;-80
2023/03/17 09:55:51;;;;;;;6.72;3.78;;;14.20;99.90;;;;;;8173453;29;20028;-80
2023/03/17 10:00:05;;;;;;;6.05;3.35;;;14.40;99.90;;;;;;8187521;28;20023;-80
2023/03/17 10:04:07;;;;;;;5.63;3.03;;;14.40;99.90;;;;;;8173008;29;20027;-80
2023/03/17 10:08:30;;;;;;;4.13;3.00;;;14.60;99.90;;;;;;8172165;29;20111;-80
2023/03/17 10:12:50;;;;;;;5.07;3.10;;;15.00;99.90;;;;;;8172617;29;20039;-81
2023/03/17 10:16:57;;;;;;;5.30;3.28;;;15.30;99.90;;;;;;8173516;29;20276;-80
2023/03/17 10:21:02;;;;;;;5.38;3.35;;;15.60;99.90;;;;;;8171856;29;20035;-80
2023/03/17 10:25:09;;;;;;;10.75;5.50;;;16.10;99.90;;;;;;8173375;29;20400;-80
2023/03/17 10:29:14;;;;;;;5.72;3.08;;;17.20;99.90;;;;;;8171543;29;20380;-80
2023/03/17 10:33:15;;;;;;;4.53;3.00;;;17.70;99.90;;;;;;8170722;29;20034;-81
2023/03/17 10:37:22;;;;;;;4.28;2.92;;;18.50;97.10;;;;;;8170265;29;20035;-81
2023/03/17 10:41:24;;;;;;;4.20;3.05;;;19.20;96.20;;;;;;8171306;29;20028;-80
2023/03/17 10:45:29;;;;;;;6.82;2.95;;;19.60;90.60;;;;;;8171367;29;20027;-80
2023/03/17 10:49:36;;;;;;;4.57;3.00;;;19.70;86.00;;;;;;8170577;29;20020;-80
2023/03/17 10:53:42;;;;;;;7.53;3.30;;;19.60;82.40;;;;;;8171127;29;20433;-81
2023/03/17 10:58:00;;;;;;;9.98;5.43;;;20.00;84.60;;;;;;8170719;29;20035;-81
2023/03/17 11:02:10;;;;;;;3.58;2.20;;;20.60;84.10;;;;;;8170590;29;20244;-80
2023/03/17 11:06:14;;;;;;;4.47;2.65;;;20.10;79.50;;;;;;8174064;29;20028;-81
2023/03/17 11:10:23;;;;;;;7.25;2.67;;;19.50;78.00;;;;;;8175916;29;20148;-79
2023/03/17 11:14:27;;;;;;;3.47;2.22;;;19.80;81.10;;;;;;8171844;29;20067;-81
2023/03/17 11:18:36;;;;;;;3.38;1.92;;;20.20;71.00;;;;;;8170411;29;20086;-80
2023/03/17 11:22:40;;;;;;;3.03;1.83;;;20.40;73.00;;;;;;8167847;29;20026;-80
2023/03/17 11:26:58;;;;;;;3.83;2.40;;;20.70;68.40;;;;;;8171297;29;20505;-80
2023/03/17 11:31:11;;;;;;;3.83;2.47;;;20.50;70.40;;;;;;8167629;29;20106;-80
2023/03/17 11:35:40;;;;;;;3.67;1.95;;;21.30;65.70;;;;;;8168849;29;20031;-80
2023/03/17 11:39:56;;;;;;;6.65;4.22;;;22.20;68.40;;;;;;8165482;29;20024;-80
2023/03/17 11:44:34;;;;;;;2.92;2.08;;;23.10;69.00;;;;;;8170223;29;20036;-81
2023/03/17 11:49:10;;;;;;;2.95;2.30;;;22.80;63.80;;;;;;8167923;29;20023;-80
2023/03/17 11:53:32;;;;;;;3.35;2.20;;;22.70;62.30;;;;;;8168695;29;20508;-80
2023/03/17 11:57:45;;;;;;;3.13;2.28;;;21.40;59.50;;;;;;8167295;29;20035;-80
2023/03/17 12:01:57;;;;;;;4.28;2.40;;;21.00;60.70;;;;;;8169212;29;20042;-80
2023/03/17 12:06:04;;;;;;;3.13;2.30;;;21.40;67.50;;;;;;8170911;29;20027;-81
2023/03/17 12:10:12;;;;;;;3.88;2.45;;;22.40;67.40;;;;;;8170937;29;20483;-80
2023/03/17 12:14:23;;;;;;;4.22;2.55;;;22.50;62.40;;;;;;8169508;29;20089;-80
2023/03/17 12:18:38;;;;;;;4.32;2.92;;;21.70;70.30;;;;;;8185590;28;20047;-80
2023/03/17 12:22:45;;;;;;;4.72;2.50;;;21.60;70.40;;;;;;8184629;28;20039;-80
2023/03/17 12:26:54;;;;;;;3.88;2.45;;;22.30;62.20;;;;;;8170296;29;20342;-80
2023/03/17 12:31:00;;;;;;;4.38;2.63;;;22.60;64.70;;;;;;8186778;28;20063;-80
2023/03/17 12:35:22;;;;;;;4.25;2.53;;;22.70;62.00;;;;;;8174378;29;20028;-80
2023/03/17 12:39:29;;;;;;;3.33;2.17;;;22.30;61.80;;;;;;8177326;29;20493;-80
2023/03/17 12:43:43;;;;;;;4.85;2.38;;;21.30;61.70;;;;;;8166113;29;20074;-80
2023/03/17 12:48:16;;;;;;;3.28;2.22;;;21.90;60.70;;;;;;8166356;29;20044;-80
2023/03/17 12:52:27;;;;;;;4.28;2.40;;;22.10;62.90;;;;;;8157565;29;20032;-80
2023/03/17 12:56:33;;;;;;;4.57;2.20;;;21.90;63.40;;;;;;8161424;29;20564;-80
2023/03/17 13:00:49;;;;;;;3.83;2.70;;;22.10;63.90;;;;;;8174025;29;20019;-80
2023/03/17 13:05:01;;;;;;;4.55;2.80;;;21.10;66.40;;;;;;8170743;29;20024;-80
2023/03/17 13:09:28;;;;;;;5.13;2.63;;;20.90;65.30;;;;;;8167949;29;20027;-80
2023/03/17 13:13:40;;;;;;;4.18;2.75;;;20.40;69.20;;;;;;8170449;29;20078;-79
2023/03/17 13:17:41;;;;;;;6.03;2.75;;;20.80;74.80;;;;;;8168332;29;20492;-80
2023/03/17 13:21:55;;;;;;;5.00;2.58;;;21.30;68.60;;;;;;8169028;29;20062;-80
2023/03/17 13:25:56;;;;;;;4.13;2.60;;;20.80;68.50;;;;;;8183073;29;20135;-80
2023/03/17 13:29:58;;;;;;;4.80;2.65;;;21.10;65.70;;;;;;8182249;29;20103;-80
2023/03/17 13:34:10;;;;;;;4.07;2.58;;;21.90;68.20;;;;;;8166369;29;20063;-80
2023/03/17 13:38:31;;;;;;;4.07;2.65;;;22.30;66.30;;;;;;8166668;29;20101;-80
2023/03/17 13:42:41;;;;;;;6.40;3.10;;;23.30;64.20;;;;;;8200306;28;20087;-80
2023/03/17 13:46:45;;;;;;;4.57;2.63;;;23.60;61.60;;;;;;8197273;29;20046;-80
2023/03/17 13:50:46;;;;;;;6.70;2.67;;;23.90;60.90;;;;;;8180644;29;20024;-79
2023/03/17 13:55:00;;;;;;;3.30;2.30;;;24.70;57.30;;;;;;8183338;28;20053;-80
2023/03/17 13:59:01;;;;;;;2.65;1.90;;;25.40;54.90;;;;;;8165384;29;20036;-80
2023/03/17 14:03:09;;;;;;;3.42;2.63;;;27.40;56.70;;;;;;8166208;29;20042;-80
2023/03/17 14:07:17;;;;;;;2.95;2.10;;;27.70;51.50;;;;;;8173004;29;20034;-80
2023/03/17 14:11:33;;;;;;;2.97;1.92;;;28.40;47.00;;;;;;8194860;28;20285;-80
2023/03/17 14:15:46;;;;;;;3.28;2.28;;;30.40;45.80;;;;;;8198445;28;20122;-80
2023/03/17 14:20:26;;;;;;;4.22;2.40;;;28.80;46.40;;;;;;8197946;28;20028;-80
2023/03/17 14:24:32;;;;;;;3.42;2.45;;;27.40;47.20;;;;;;8167228;29;20066;-80
2023/03/17 14:28:34;;;;;;;3.90;2.38;;;26.30;48.50;;;;;;8168853;29;20023;-79
2023/03/17 14:32:34;;;;;;;5.70;2.47;;;25.40;53.10;;;;;;8169034;29;20032;-78
2023/03/17 14:36:36;;;;;;;4.57;2.65;;;24.10;53.60;;;;;;8181780;29;20099;-80
2023/03/17 14:40:36;;;;;;;4.38;2.72;;;23.00;57.60;;;;;;8178186;29;20027;-80
2023/03/17 14:44:42;;;;;;;4.00;2.50;;;24.00;54.70;;;;;;8177375;28;20019;-80
2023/03/17 14:48:46;;;;;;;5.70;3.25;;;24.30;54.50;;;;;;8169061;29;20467;-80
2023/03/17 14:52:49;;;;;;;3.60;2.70;;;23.80;57.00;;;;;;8192453;28;20075;-80
2023/03/17 14:57:00;;;;;;;6.72;3.55;;;23.00;58.00;;;;;;8170442;29;20028;-80
2023/03/17 15:01:34;;;;;;;4.80;3.00;;;22.30;59.40;;;;;;8167561;29;20031;-80
2023/03/17 15:05:40;;;;;;;3.53;2.40;;;21.50;60.50;;;;;;8170985;29;20508;-79
2023/03/17 15:09:40;;;;;;;5.50;3.28;;;21.80;63.40;;;;;;8193711;28;20488;-81
2023/03/17 15:13:41;;;;;;;4.15;3.00;;;22.10;60.40;;;;;;8468836;23;20043;-79
2023/03/17 15:17:42;;;;;;;4.70;2.80;;;22.60;59.80;;;;;;8195355;28;20023;-79
2023/03/17 15:21:42;;;;;;;6.22;3.40;;;23.20;60.60;;;;;;8197726;28;20023;-80
2023/03/17 15:25:48;;;;;;;4.97;3.10;;;23.50;57.80;;;;;;8183525;28;20074;-79
2023/03/17 15:29:49;;;;;;;4.68;2.97;;;23.70;56.90;;;;;;8181301;28;20555;-78
2023/03/17 15:33:50;;;;;;;4.47;3.05;;;23.00;57.60;;;;;;8208614;28;20023;-80
2023/03/17 15:37:51;;;;;;;5.63;3.00;;;22.10;61.30;;;;;;8182958;28;20061;-78
2023/03/17 15:41:52;;;;;;;4.90;3.00;;;21.20;60.30;;;;;;8175886;28;20803;-79
2023/03/17 15:46:23;;;;;;;5.53;2.67;;;20.60;61.00;;;;;;8193037;28;20023;-79
2023/03/17 15:50:29;;;;;;;4.20;2.45;;;19.80;62.20;;;;;;8194226;28;20573;-79
2023/03/17 15:54:30;;;;;;;5.18;2.95;;;19.60;62.90;;;;;;8176674;28;20057;-79
2023/03/17 15:58:31;;;;;;;5.95;2.65;;;19.30;63.90;;;;;;8202651;28;20031;-79
2023/03/17 16:02:33;;;;;;;3.72;2.50;;;18.90;67.70;;;;;;8192340;28;20051;-82
2023/03/17 16:06:34;;;;;;;4.07;2.65;;;18.50;75.40;;;;;;8182691;28;20027;-79
2023/03/17 16:10:35;;;;;;;4.70;2.53;;;18.20;78.50;;;;;;8179378;28;20042;-79
2023/03/17 16:14:35;;;;;;;6.47;3.50;;;18.10;84.00;;;;;;8182128;28;20095;-78
2023/03/17 16:18:37;;;;;;;4.75;2.97;;;17.60;84.80;;;;;;8182725;28;20027;-80
2023/03/17 16:22:41;;;;;;;3.80;2.42;;;16.90;85.10;;;;;;8182724;28;20023;-78
2023/03/17 16:26:42;;;;;;;6.43;2.85;;;17.00;91.10;;;;;;8197450;28;20041;-82
2023/03/17 16:30:43;;;;;;;9.73;2.95;;;16.40;90.60;;;;;;8202166;28;20019;-81
2023/03/17 16:34:43;;;;;;;9.40;3.00;;;16.70;93.40;;;;;;8195762;28;20443;-81
2023/03/17 16:38:45;;;;;;;7.40;2.97;;;15.50;94.00;;;;;;8203074;28;20035;-82
2023/03/17 16:42:46;;;;;;;6.95;2.85;;;14.90;95.40;;;;;;8178572;28;20027;-82
2023/03/17 16:46:47;;;;;;;8.82;2.60;;;14.70;98.20;;;;;;8202632;28;20023;-82
2023/03/17 16:50:49;;;;;;;6.63;3.10;;;14.60;99.90;;;;;;8187146;28;20069;-78
2023/03/17 16:54:49;;;;;;;7.28;4.60;;;14.10;99.90;;;;;;8184797;28;20043;-78
2023/03/17 16:58:50;;;;;;;9.77;5.15;;;14.30;99.90;;;;;;8188309;28;20639;-78
2023/03/17 17:02:51;;;;;;;9.23;4.63;;;13.70;99.90;;;;;;8185922;28;20040;-79
2023/03/17 17:06:52;;;;;;;8.95;5.20;;;13.10;99.90;;;;;;8181970;28;20098;-78
2023/03/17 17:10:53;;;;;;;10.35;5.15;;;12.90;99.90;;;;;;8193642;28;20038;-78
2023/03/17 17:14:53;;;;;;;13.75;5.82;;;12.70;99.90;;;;;;8176606;28;20221;-78
2023/03/17 17:18:54;;;;;;;11.70;6.50;;;12.50;99.90;;;;;;8177160;28;20404;-79
2023/03/17 17:22:56;;;;;;;17.55;6.93;;;12.20;99.90;;;;;;8177095;28;20042;-77
2023/03/17 17:26:57;;;;;;;12.32;5.70;;;12.00;99.90;;;;;;8187092;28;20035;-78
2023/03/17 17:30:58;;;;;;;15.98;5.95;;;11.90;99.90;;;;;;8175256;28;20059;-78
2023/03/17 17:34:59;;;;;;;11.70;5.53;;;11.50;99.90;;;;;;8175964;28;20028;-78
2023/03/17 17:39:00;;;;;;;11.07;5.75;;;11.50;99.90;;;;;;8176095;28;20485;-78
2023/03/17 17:43:01;;;;;;;12.40;6.72;;;11.00;99.90;;;;;;8176435;28;20031;-77
2023/03/17 17:47:01;;;;;;;16.38;7.63;;;10.60;99.90;;;;;;8199011;28;20015;-78
2023/03/17 17:51:02;;;;;;;16.90;8.07;;;10.40;99.90;;;;;;8199137;28;20024;-78
2023/03/17 17:55:03;;;;;;;17.60;9.68;;;10.20;99.90;;;;;;8181183;28;20067;-78
2023/03/17 17:59:03;;;;;;;16.25;6.55;;;9.90;99.90;;;;;;8181453;28;20041;-78
2023/03/17 18:03:04;;;;;;;16.05;8.35;;;9.80;99.90;;;;;;8198088;28;20035;-78
2023/03/17 18:07:05;;;;;;;17.08;9.45;;;9.80;99.90;;;;;;8200808;28;20027;-78
2023/03/17 18:11:06;;;;;;;24.63;11.40;;;9.70;99.90;;;;;;8181309;28;20071;-77
2023/03/17 18:15:07;;;;;;;44.75;20.90;;;9.70;99.90;;;;;;8181613;28;20031;-78
2023/03/17 18:19:11;;;;;;;22.70;11.98;;;9.50;99.90;;;;;;8181388;28;20027;-78
2023/03/17 18:23:12;;;;;;;17.50;9.60;;;10.00;99.90;;;;;;8181688;28;20915;-78
2023/03/17 18:27:13;;;;;;;32.42;15.48;;;10.40;99.90;;;;;;8204809;28;20054;-78
2023/03/17 18:31:28;;;;;;;21.10;10.98;;;10.40;99.90;;;;;;8187855;28;20035;-78
2023/03/17 18:35:28;;;;;;;17.63;7.88;;;10.30;99.90;;;;;;8192074;28;20154;-78
2023/03/17 18:39:31;;;;;;;18.08;7.95;;;10.20;99.90;;;;;;8191331;28;20094;-78
2023/03/17 18:43:32;;;;;;;12.55;5.97;;;9.80;99.90;;;;;;8187631;28;20506;-78
2023/03/17 18:47:32;;;;;;;7.65;4.30;;;9.60;99.90;;;;;;8197574;28;20028;-77
2023/03/17 18:51:33;;;;;;;13.27;6.47;;;9.50;99.90;;;;;;8194456;28;20027;-77
2023/03/17 18:55:33;;;;;;;13.35;5.85;;;9.50;99.90;;;;;;8177699;28;20519;-78
2023/03/17 18:59:34;;;;;;;18.05;8.13;;;9.60;99.90;;;;;;8195687;28;20035;-78
2023/03/17 19:03:35;;;;;;;6.18;3.85;;;9.30;99.90;;;;;;8193303;28;20039;-78
2023/03/17 19:07:35;;;;;;;8.30;4.50;;;9.00;99.90;;;;;;8196619;28;20147;-77
2023/03/17 19:11:38;;;;;;;10.90;5.72;;;8.80;99.90;;;;;;8194205;28;20463;-78
2023/03/17 19:15:39;;;;;;;8.65;4.90;;;8.40;99.90;;;;;;8197848;28;20030;-77
2023/03/17 19:19:40;;;;;;;9.43;4.95;;;8.00;99.90;;;;;;8178233;28;20031;-79
2023/03/17 19:23:40;;;;;;;11.75;5.25;;;7.80;99.90;;;;;;8180508;28;20106;-78
2023/03/17 19:27:41;;;;;;;8.80;4.70;;;7.50;99.90;;;;;;8177098;28;20027;-78
2023/03/17 19:31:42;;;;;;;11.88;4.78;;;7.40;99.90;;;;;;8177882;28;20024;-79
2023/03/17 19:35:43;;;;;;;8.75;4.72;;;7.40;99.90;;;;;;8193322;28;20523;-78
2023/03/17 19:39:44;;;;;;;10.07;4.40;;;7.60;99.90;;;;;;8194956;28;20020;-79
2023/03/17 19:43:45;;;;;;;8.80;4.82;;;7.50;99.90;;;;;;8193945;28;20034;-79
2023/03/17 19:47:46;;;;;;;11.05;5.88;;;7.50;99.90;;;;;;8177127;28;20122;-76
2023/03/17 19:51:47;;;;;;;11.38;6.07;;;7.50;99.90;;;;;;8193726;28;20103;-77
2023/03/17 19:55:48;;;;;;;12.00;5.78;;;7.70;99.90;;;;;;8192852;28;20361;-78
2023/03/17 19:59:49;;;;;;;9.82;5.40;;;7.40;99.90;;;;;;8190641;28;20024;-78
2023/03/17 20:03:49;;;;;;;8.20;4.90;;;7.20;99.90;;;;;;8178670;28;20066;-77
2023/03/17 20:07:50;;;;;;;9.43;3.50;;;7.10;99.90;;;;;;8176229;28;20027;-77
2023/03/17 20:11:55;;;;;;;9.25;4.00;;;7.40;99.90;;;;;;8176582;28;20027;-78
2023/03/17 20:15:56;;;;;;;8.90;4.40;;;7.50;99.90;;;;;;8175530;28;20078;-78
2023/03/17 20:19:56;;;;;;;14.93;6.13;;;7.40;99.90;;;;;;8194004;28;20027;-79
2023/03/17 20:23:57;;;;;;;12.45;7.00;;;7.20;99.90;;;;;;8174961;28;20102;-78
2023/03/17 20:27:57;;;;;;;13.50;7.07;;;7.10;99.90;;;;;;8183277;28;20031;-79
2023/03/17 20:31:58;;;;;;;13.52;6.40;;;7.00;99.90;;;;;;8194561;28;20966;-77
2023/03/17 20:36:00;;;;;;;7.65;4.65;;;7.00;99.90;;;;;;8198854;28;20226;-79
2023/03/17 20:40:03;;;;;;;10.68;5.40;;;6.90;99.90;;;;;;8192874;28;20051;-79
2023/03/17 20:44:05;;;;;;;11.98;5.95;;;6.90;99.90;;;;;;8201338;28;20162;-79
2023/03/17 20:48:09;;;;;;;13.95;4.95;;;6.90;99.90;;;;;;8193354;28;20038;-78
2023/03/17 20:52:13;;;;;;;14.20;6.20;;;7.00;99.90;;;;;;8198880;28;20039;-77
2023/03/17 20:56:15;;;;;;;11.02;4.95;;;7.40;99.90;;;;;;8192140;28;20058;-79
2023/03/17 21:00:20;;;;;;;12.75;5.57;;;7.30;99.90;;;;;;8195529;28;20078;-79
2023/03/17 21:04:21;;;;;;;11.30;5.25;;;7.10;99.90;;;;;;8190042;28;20027;-79
2023/03/17 21:08:22;;;;;;;13.48;5.57;;;6.70;99.90;;;;;;8208785;28;20047;-78
2023/03/17 21:12:22;;;;;;;8.57;5.15;;;6.70;99.90;;;;;;8209456;28;20035;-78
2023/03/17 21:16:26;;;;;;;12.70;5.90;;;7.00;99.90;;;;;;8216603;28;20027;-78